HOURLY OBS INDEX

030

Upper Carpentaria

GEORGETOWN AIRPORT

Site: 030124
Alt: 301.8m
270km ESE of NORMANTON


  Time     Wind        Temp  DP   Baro     Rain since   Rain past  Vis(m), Cloud(base in m), Weather
  local        km/h                         9am  last   hr   10m    
Sun 17:00  SSE 13/ 26  25.2  2.6  1017.6    0.0   0.0   0.0   0.0   10000 
Sun 17:30   SE 13/ 24  24.6  3.3  1017.9    0.0   0.0   0.0   0.0   10000 
Sun 18:00  SSE 11/ 17  23.3  3.3  1018.2    0.0   0.0   0.0   0.0   10000 
Sun 18:30  SSE  9/ 11  22.2  3.3  1018.5    0.0   0.0   0.0   0.0   10000 
Sun 19:00  SSE  9/ 11  21.1  3.3  1018.7    0.0   0.0   0.0   0.0   10000 
Sun 19:30   SE  7/ 11  20.7  3.4  1018.7    0.0   0.0   0.0   0.0   10000 
Sun 20:00   SE  7/ 11  20.0  2.8  1018.9    0.0   0.0   0.0   0.0   10000 
Sun 20:30   SE  9/ 11  19.9  2.7  1019.3    0.0   0.0   0.0   0.0   10000 
Sun 21:00  ESE 13/ 19  20.3  1.7  1019.5    0.0   0.0   0.0   0.0   10000 
Sun 21:30   SE 13/ 20  20.0  1.4  1019.8    0.0   0.0   0.0   0.0   10000 
Sun 22:00   SE 13/ 19  19.8  1.7  1020.0    0.0   0.0   0.0   0.0   10000 
Sun 22:30   SE 13/ 24  19.6  1.6  1020.0    0.0   0.0   0.0   0.0   10000 

HUGHENDEN AIRPORT

Site: 030022
Alt: 316.4m
5km ENE of HUGHENDEN


  Time     Wind        Temp  DP   Baro     Rain since   Rain past  Vis(m), Cloud(base in m), Weather
  local        km/h                         9am  last   hr   10m    
Sun 17:00   SE 17/ 22  21.1 -3.4  1020.1    0.0   0.0   0.0   0.0   10000 
Sun 17:30  SSE 19/ 24  19.8 -2.5  1020.6    0.0   0.0   0.0   0.0   10000 
Sun 18:00  SSE 20/ 28  18.7 -2.3  1020.7    0.0   0.0   0.0   0.0   10000 
Sun 18:30    S 15/ 20  17.8 -2.5  1021.4    0.0   0.0   0.0   0.0   10000 
Sun 19:00  SSE 13/ 19  17.0 -3.1  1021.7    0.0   0.0   0.0   0.0   10000 
Sun 19:30  SSE 15/ 19  16.7 -3.4  1022.0    0.0   0.0   0.0   0.0   10000 
Sun 20:00   SE 13/ 17  16.4 -3.7  1022.3    0.0   0.0   0.0   0.0   10000 
Sun 20:30   SE 15/ 19  16.2 -4.4  1022.2    0.0   0.0   0.0   0.0   10000 
Sun 21:00   SE 13/ 17  15.3 -4.1  1022.4    0.0   0.0   0.0   0.0   10000 
Sun 21:30   SE 13/ 17  14.8 -4.5  1022.7    0.0   0.0   0.0   0.0   10000 
Sun 22:00   SE 13/ 17  14.4 -4.3  1022.7    0.0   0.0   0.0   0.0   10000 
Sun 22:30   SE 15/ 19  14.5 -4.2  1022.7    0.0   0.0   0.0   0.0   10000 

RICHMOND AIRPORT

Site: 030161
Alt: 206.3m
112km W of HUGHENDEN


  Time     Wind        Temp  DP   Baro     Rain since   Rain past  Vis(m), Cloud(base in m), Weather
  local        km/h                         9am  last   hr   10m    
Sun 17:00  SSE 26/ 33  20.2 -0.4  1020.4    0.0   0.0   0.0   0.0   10000 
Sun 17:30  SSE 24/ 32  19.4 -0.6  1020.5    0.0   0.0   0.0   0.0   10000 
Sun 18:00  SSE 20/ 24  18.5 -0.8  1020.8    0.0   0.0   0.0   0.0   10000 
Sun 18:30  SSE 17/ 20  17.1 -1.1  1020.9    0.0   0.0   0.0   0.0   10000 
Sun 19:00  SSE 19/ 22  16.3 -0.8  1020.9    0.0   0.0   0.0   0.0   10000 
Sun 19:30   SE 20/ 24  16.2 -0.5  1021.2    0.0   0.0   0.0   0.0   10000 
Sun 20:00  SSE 19/ 20  14.6 -1.1  1021.5    0.0   0.0   0.0   0.0   10000 
Sun 20:30   SE 17/ 20  15.0 -0.7  1021.8    0.0   0.0   0.0   0.0   10000 
Sun 21:00   SE 20/ 24  14.8 -0.9  1021.8    0.0   0.0   0.0   0.0   10000 
Sun 21:30   SE 22/ 28  15.1 -0.6  1022.1    0.0   0.0   0.0   0.0   10000 
Sun 22:00  ESE 19/ 22  13.8 -1.4  1022.2    0.0   0.0   0.0   0.0   10000 
Sun 22:30  ESE 13/ 17  10.9 -1.5  1022.4    0.0   0.0   0.0   0.0   10000